createdAt,value
2024-02-08T00:01:44.960Z,166.13
2024-02-08T00:04:12.409Z,167.38
2024-02-08T00:06:40.113Z,168.57
2024-02-08T00:09:09.202Z,167.60
2024-02-08T00:11:37.005Z,180.63
2024-02-08T00:14:04.444Z,194.00
2024-02-08T00:16:32.355Z,173.43
2024-02-08T00:19:03.881Z,178.00
2024-02-08T00:21:33.780Z,179.77
2024-02-08T00:24:01.635Z,169.50
2024-02-08T00:26:29.152Z,162.57
2024-02-08T00:28:56.755Z,174.75
2024-02-08T00:31:28.227Z,169.13
2024-02-08T00:33:55.674Z,178.98
2024-02-08T00:36:23.641Z,170.23
2024-02-08T00:38:51.035Z,149.82
2024-02-08T00:41:19.241Z,170.25
2024-02-08T00:43:47.651Z,177.57
2024-02-08T00:46:14.944Z,160.40
2024-02-08T00:48:45.118Z,160.60
2024-02-08T00:51:12.634Z,170.60
2024-02-08T00:53:39.984Z,181.32
2024-02-08T00:56:11.319Z,178.75
2024-02-08T00:58:39.933Z,152.23
2024-02-08T01:01:15.863Z,153.43
2024-02-08T01:03:43.591Z,183.88
2024-02-08T01:06:11.077Z,164.30
2024-02-08T01:08:38.669Z,178.65
2024-02-08T01:11:06.195Z,187.45
2024-02-08T01:13:33.689Z,191.57
2024-02-08T01:16:02.757Z,169.18
2024-02-08T01:18:32.023Z,191.13
2024-02-08T01:21:01.962Z,159.07
2024-02-08T01:23:32.260Z,171.60
2024-02-08T01:25:59.595Z,173.63
2024-02-08T01:28:28.435Z,176.27
2024-02-08T01:30:55.679Z,166.50
2024-02-08T01:33:23.624Z,170.50
2024-02-08T01:35:53.714Z,175.68
2024-02-08T01:38:21.444Z,162.68
2024-02-08T01:40:49.082Z,177.02
2024-02-08T01:43:16.747Z,169.98
2024-02-08T01:45:44.399Z,176.05
2024-02-08T01:48:14.230Z,167.85
2024-02-08T01:50:48.755Z,180.43
2024-02-08T01:53:19.924Z,166.75
2024-02-08T01:55:51.950Z,173.82
2024-02-08T01:58:21.709Z,166.90
2024-02-08T02:00:51.075Z,176.27
2024-02-08T02:03:21.000Z,173.48
2024-02-08T02:05:48.825Z,176.00
2024-02-08T02:08:25.079Z,198.68
2024-02-08T02:11:01.631Z,171.00
2024-02-08T02:13:29.471Z,174.18
2024-02-08T02:15:56.773Z,175.48
2024-02-08T02:18:23.991Z,176.70
2024-02-08T02:20:55.407Z,184.82
2024-02-08T02:23:22.797Z,165.90
2024-02-08T02:25:52.826Z,169.35
2024-02-08T02:28:21.037Z,165.80
2024-02-08T02:30:49.976Z,180.20
2024-02-08T02:33:17.629Z,173.55
2024-02-08T02:35:51.069Z,172.05
2024-02-08T02:38:19.289Z,170.65
2024-02-08T02:40:47.956Z,173.93
2024-02-08T02:43:15.774Z,178.13
2024-02-08T02:45:43.094Z,184.68
2024-02-08T02:48:10.836Z,169.25
2024-02-08T02:50:43.188Z,187.60
2024-02-08T02:53:11.353Z,181.30
2024-02-08T02:55:39.607Z,181.98
2024-02-08T02:58:07.020Z,189.60
2024-02-08T03:00:38.026Z,181.55
2024-02-08T03:03:09.987Z,188.90
2024-02-08T03:05:41.475Z,181.65
2024-02-08T03:08:08.910Z,196.63
2024-02-08T03:10:40.142Z,187.90
2024-02-08T03:13:09.360Z,201.20
2024-02-08T03:15:39.822Z,202.63
2024-02-08T03:18:08.932Z,198.88
2024-02-08T03:20:37.773Z,201.70
2024-02-08T03:23:05.350Z,186.68
2024-02-08T03:25:35.189Z,172.77
2024-02-08T03:28:05.825Z,176.18
2024-02-08T03:30:33.418Z,188.15
2024-02-08T03:33:00.973Z,183.43
2024-02-08T03:35:31.401Z,191.57
2024-02-08T03:38:02.286Z,193.50
2024-02-08T03:40:33.966Z,190.07
2024-02-08T03:43:02.432Z,186.18
2024-02-08T03:45:29.856Z,184.18
2024-02-08T03:47:59.577Z,194.10
2024-02-08T03:50:28.535Z,188.75
2024-02-08T03:52:55.758Z,182.88
2024-02-08T03:55:29.113Z,182.90
2024-02-08T03:58:08.191Z,200.98
2024-02-08T04:00:36.105Z,186.70
2024-02-08T04:03:07.527Z,192.73
2024-02-08T04:06:00.795Z,172.43
2024-02-08T04:08:28.415Z,177.40
2024-02-08T04:10:56.224Z,176.18
2024-02-08T04:13:42.989Z,180.32
2024-02-08T04:16:29.028Z,184.63
2024-02-08T04:19:18.388Z,187.10
2024-02-08T04:22:14.739Z,191.95
2024-02-08T04:25:00.295Z,184.23
2024-02-08T04:27:46.172Z,178.50
2024-02-08T04:30:32.102Z,186.60
2024-02-08T04:33:17.755Z,195.02
2024-02-08T04:36:03.799Z,184.18
2024-02-08T04:38:49.899Z,201.18
2024-02-08T04:41:35.877Z,195.25
2024-02-08T04:44:21.703Z,181.13
2024-02-08T04:47:07.919Z,172.10
2024-02-08T04:49:54.146Z,185.82
2024-02-08T04:52:40.264Z,190.70
2024-02-08T04:55:11.704Z,199.38
2024-02-08T04:57:38.907Z,199.50
2024-02-08T05:00:06.618Z,193.13
2024-02-08T05:02:34.265Z,203.60
2024-02-08T05:05:07.889Z,190.25
2024-02-08T05:07:35.251Z,200.85
2024-02-08T05:10:03.384Z,199.55
2024-02-08T05:12:31.667Z,197.27
2024-02-08T05:14:59.513Z,193.32
2024-02-08T05:17:27.092Z,178.13
2024-02-08T05:19:54.474Z,193.52
2024-02-08T05:22:23.618Z,197.02
2024-02-08T05:24:51.141Z,190.13
2024-02-08T05:27:18.379Z,174.45
2024-02-08T05:29:47.980Z,190.73
2024-02-08T05:32:15.214Z,182.65
2024-02-08T05:34:42.641Z,198.65
2024-02-08T05:37:09.965Z,174.75
2024-02-08T05:39:37.902Z,181.15
2024-02-08T05:42:05.377Z,189.07
2024-02-08T05:44:34.210Z,171.13
2024-02-08T05:47:10.969Z,173.60
2024-02-08T05:49:53.661Z,170.45
2024-02-08T05:52:21.571Z,170.45
2024-02-08T05:54:53.830Z,169.93
2024-02-08T05:57:23.091Z,169.10
2024-02-08T05:59:54.145Z,172.70
2024-02-08T06:02:25.949Z,168.43
2024-02-08T06:05:02.540Z,178.60
2024-02-08T06:07:32.679Z,172.27
2024-02-08T06:10:15.238Z,173.55
2024-02-08T06:12:53.545Z,176.63
2024-02-08T06:15:27.326Z,161.88
2024-02-08T06:18:07.864Z,182.02
2024-02-08T06:20:41.541Z,182.70
2024-02-08T06:23:20.285Z,190.85
2024-02-08T06:26:09.879Z,193.70
2024-02-08T06:28:54.232Z,187.18
2024-02-08T06:31:34.308Z,190.43
2024-02-08T06:34:10.307Z,193.57
2024-02-08T06:39:31.413Z,186.85
2024-02-08T06:42:31.466Z,198.88
2024-02-08T06:45:18.004Z,200.65
2024-02-08T06:48:01.180Z,197.98
2024-02-08T06:50:47.441Z,185.95
2024-02-08T06:53:36.302Z,193.05
2024-02-08T06:56:24.692Z,164.80
2024-02-08T06:59:10.525Z,160.45
2024-02-08T07:01:58.474Z,176.77
2024-02-08T07:04:44.580Z,210.20
2024-02-08T07:07:30.809Z,221.57
2024-02-08T07:10:16.840Z,189.13
2024-02-08T07:13:02.923Z,207.57
2024-02-08T07:15:50.084Z,218.23
2024-02-08T07:18:40.388Z,209.07
2024-02-08T07:21:31.178Z,185.45
2024-02-08T07:24:17.114Z,191.00
2024-02-08T07:27:02.977Z,191.75
2024-02-08T07:29:49.135Z,194.15
2024-02-08T07:32:35.255Z,188.77
2024-02-08T07:35:21.271Z,192.68
2024-02-08T07:37:48.770Z,200.68
2024-02-08T07:40:27.214Z,197.45
2024-02-08T07:43:17.143Z,220.32
2024-02-08T07:45:46.739Z,248.45
2024-02-08T07:48:15.300Z,206.98
2024-02-08T07:50:49.148Z,190.15
2024-02-08T07:53:37.051Z,190.68
2024-02-08T07:56:22.748Z,194.00
2024-02-08T07:59:06.689Z,190.82
2024-02-08T08:01:45.839Z,176.88
2024-02-08T08:04:29.311Z,168.98
2024-02-08T08:07:01.661Z,166.05
2024-02-08T08:09:29.116Z,159.73
2024-02-08T08:11:56.841Z,166.80
2024-02-08T08:14:42.898Z,167.82
2024-02-08T08:17:18.524Z,148.73
2024-02-08T08:19:46.708Z,149.95
2024-02-08T08:22:41.721Z,135.68
2024-02-08T08:25:12.979Z,162.15
2024-02-08T08:27:49.132Z,153.10
2024-02-08T08:33:02.736Z,187.52
2024-02-08T08:35:49.086Z,178.57
2024-02-08T08:38:22.557Z,169.40
2024-02-08T08:40:52.566Z,151.35
2024-02-08T08:43:22.260Z,188.43
2024-02-08T08:45:53.624Z,191.80
2024-02-08T08:48:21.235Z,168.93
2024-02-08T08:50:56.850Z,173.10
2024-02-08T08:53:28.986Z,171.70
2024-02-08T08:56:04.746Z,165.87
2024-02-08T08:58:40.729Z,179.55
2024-02-08T09:01:20.259Z,162.30
2024-02-08T09:03:58.225Z,172.05
2024-02-08T09:06:29.035Z,175.18
2024-02-08T09:08:56.807Z,170.98
2024-02-08T09:11:28.000Z,177.00
2024-02-08T09:13:59.153Z,188.40
2024-02-08T09:16:26.718Z,171.35
2024-02-08T09:19:04.864Z,171.52
2024-02-08T09:21:36.984Z,161.25
2024-02-08T09:24:05.752Z,173.50
2024-02-08T09:27:15.823Z,176.90
2024-02-08T09:29:44.208Z,169.43
2024-02-08T09:32:30.531Z,176.60
2024-02-08T09:35:00.038Z,170.45
2024-02-08T09:37:30.508Z,178.48
2024-02-08T09:39:57.922Z,157.10
2024-02-08T09:42:29.297Z,161.63
2024-02-08T09:57:57.511Z,166.18
2024-02-08T10:04:51.505Z,176.18
2024-02-08T10:07:40.489Z,175.38
2024-02-08T10:10:19.296Z,161.82
2024-02-08T10:13:05.528Z,172.85
2024-02-08T10:15:45.389Z,150.95
2024-02-08T10:18:15.407Z,165.02
2024-02-08T10:20:48.710Z,175.95
2024-02-08T10:23:35.822Z,165.52
2024-02-08T10:26:21.652Z,162.50
2024-02-08T10:28:49.644Z,176.32
2024-02-08T10:31:23.937Z,166.40
2024-02-08T10:33:59.041Z,191.98
2024-02-08T10:36:36.782Z,170.32
2024-02-08T10:39:09.328Z,173.10
2024-02-08T10:41:40.520Z,166.52
2024-02-08T10:44:19.741Z,161.13
2024-02-08T10:46:50.098Z,177.80
2024-02-08T10:49:19.092Z,172.27
2024-02-08T10:51:47.456Z,161.93
2024-02-08T10:54:17.705Z,174.70
2024-02-08T10:57:07.702Z,170.35
2024-02-08T10:59:41.512Z,168.80
2024-02-08T11:02:33.775Z,164.40
2024-02-08T11:05:20.946Z,154.05
2024-02-08T11:07:49.862Z,154.95
2024-02-08T11:10:24.935Z,157.52
2024-02-08T11:12:56.660Z,160.27
2024-02-08T11:15:32.779Z,162.48
2024-02-08T11:18:06.255Z,154.43
2024-02-08T11:20:44.549Z,162.27
2024-02-08T11:23:14.610Z,148.38
2024-02-08T11:25:46.611Z,158.93
2024-02-08T11:28:26.015Z,169.75
2024-02-08T11:30:55.847Z,158.95
2024-02-08T11:33:33.441Z,147.90
2024-02-08T11:36:25.687Z,151.40
2024-02-08T11:39:00.373Z,159.00
2024-02-08T11:41:36.191Z,155.73
2024-02-08T11:44:18.608Z,152.27
2024-02-08T11:47:03.847Z,148.40
2024-02-08T11:49:43.167Z,151.98
2024-02-08T11:52:28.834Z,153.15
2024-02-08T11:55:18.204Z,154.43
2024-02-08T11:57:51.255Z,146.98
2024-02-08T12:00:26.005Z,142.32
2024-02-08T12:03:10.778Z,142.43
2024-02-08T12:05:41.459Z,151.25
2024-02-08T12:08:12.850Z,132.95
2024-02-08T12:10:50.232Z,143.15
2024-02-08T12:13:41.643Z,144.18
2024-02-08T12:16:09.820Z,134.63
2024-02-08T12:18:41.152Z,139.02
2024-02-08T12:21:14.228Z,126.38
2024-02-08T12:23:42.693Z,141.65
2024-02-08T12:26:15.988Z,149.40
2024-02-08T12:28:48.162Z,138.32
2024-02-08T12:31:22.625Z,127.55
2024-02-08T12:33:56.767Z,133.27
2024-02-08T12:36:29.549Z,133.05
2024-02-08T12:39:04.116Z,142.87
2024-02-08T12:41:42.507Z,139.40
2024-02-08T12:44:16.219Z,126.78
2024-02-08T12:46:49.379Z,130.68
2024-02-08T12:49:21.168Z,132.27
2024-02-08T12:51:51.850Z,135.18
2024-02-08T12:54:23.301Z,130.85
2024-02-08T12:57:01.599Z,135.82
2024-02-08T12:59:33.168Z,139.18
2024-02-08T13:02:12.316Z,135.93
2024-02-08T13:04:45.578Z,135.00
2024-02-08T13:07:22.494Z,140.40
2024-02-08T13:09:52.054Z,136.57
2024-02-08T13:12:23.977Z,132.98
2024-02-08T13:14:56.819Z,141.65
2024-02-08T13:17:28.084Z,133.57
2024-02-08T13:20:00.491Z,132.52
2024-02-08T13:22:34.992Z,131.88
2024-02-08T13:25:05.056Z,132.55
2024-02-08T13:27:34.424Z,138.77
2024-02-08T13:30:05.220Z,133.38
2024-02-08T13:32:35.054Z,141.35
2024-02-08T13:35:03.175Z,135.30
2024-02-08T13:37:34.089Z,140.55
2024-02-08T13:40:03.914Z,131.35
2024-02-08T13:47:59.744Z,137.02
2024-02-08T13:50:37.349Z,142.63
2024-02-08T13:53:05.873Z,139.23
2024-02-08T13:55:46.336Z,145.32
2024-02-08T13:58:22.218Z,131.63
2024-02-08T14:00:53.136Z,138.95
2024-02-08T14:03:25.604Z,150.95
2024-02-08T14:06:02.624Z,141.55
2024-02-08T14:08:31.445Z,146.02
2024-02-08T14:11:01.969Z,143.07
2024-02-08T14:13:37.346Z,139.63
2024-02-08T14:16:17.774Z,130.52
2024-02-08T14:18:50.975Z,140.20
2024-02-08T14:21:27.578Z,148.60
2024-02-08T14:24:02.122Z,137.55
2024-02-08T14:26:43.820Z,143.63
2024-02-08T14:29:11.519Z,126.93
2024-02-08T14:31:41.445Z,134.18
2024-02-08T14:34:11.418Z,141.40
2024-02-08T14:36:48.539Z,125.03
2024-02-08T14:39:32.111Z,155.07
2024-02-08T14:42:15.922Z,141.70
2024-02-08T14:44:46.405Z,136.00
2024-02-08T14:47:24.497Z,141.75
2024-02-08T14:50:01.662Z,129.95
2024-02-08T14:52:38.249Z,131.52
2024-02-08T14:55:23.020Z,138.70
2024-02-08T14:57:55.706Z,129.18
2024-02-08T15:00:33.759Z,122.22
2024-02-08T15:03:11.648Z,136.68
2024-02-08T15:05:50.279Z,145.38
2024-02-08T15:08:26.885Z,139.30
2024-02-08T15:11:34.516Z,139.77
2024-02-08T15:14:06.070Z,144.93
2024-02-08T15:16:33.965Z,128.93
2024-02-08T15:19:03.521Z,137.23
2024-02-08T15:24:29.553Z,127.82
2024-02-08T15:27:06.547Z,138.63
2024-02-08T15:29:47.082Z,131.70
2024-02-08T15:32:31.975Z,129.25
2024-02-08T15:35:01.230Z,128.85
2024-02-08T15:37:43.489Z,136.68
2024-02-08T15:40:12.108Z,135.68
2024-02-08T15:42:43.552Z,130.88
2024-02-08T15:45:17.833Z,129.60
2024-02-08T15:48:05.317Z,124.65
2024-02-08T15:50:45.305Z,143.80
2024-02-08T15:53:18.975Z,135.18
2024-02-08T15:58:42.816Z,128.73
2024-02-08T16:01:10.068Z,150.38
2024-02-08T16:03:41.538Z,140.77
2024-02-08T16:06:30.132Z,148.52
2024-02-08T16:09:01.324Z,144.38
2024-02-08T16:11:35.306Z,142.52
2024-02-08T16:14:05.992Z,136.85
2024-02-08T16:16:33.792Z,141.88
2024-02-08T16:19:21.432Z,139.80
2024-02-08T16:21:49.079Z,146.07
2024-02-08T16:24:19.508Z,134.05
2024-02-08T16:26:58.594Z,145.48
2024-02-08T16:29:35.950Z,137.98
2024-02-08T16:32:08.550Z,147.82
2024-02-08T16:34:51.459Z,134.40
2024-02-08T16:37:40.209Z,139.63
2024-02-08T16:40:29.266Z,125.00
2024-02-08T16:43:02.839Z,134.98
2024-02-08T16:45:35.778Z,125.70
2024-02-08T16:48:15.966Z,133.10
2024-02-08T16:50:47.278Z,127.90
2024-02-08T16:53:21.799Z,132.55
2024-02-08T16:55:57.997Z,126.60
2024-02-08T16:58:39.539Z,130.88
2024-02-08T17:01:19.932Z,119.13
2024-02-08T17:04:14.590Z,142.23
2024-02-08T17:06:46.660Z,133.02
2024-02-08T17:09:14.044Z,127.85
2024-02-08T17:11:41.855Z,121.18
2024-02-08T17:14:27.691Z,122.65
2024-02-08T17:17:00.976Z,125.60
2024-02-08T17:19:42.650Z,119.22
2024-02-08T17:22:19.679Z,136.55
2024-02-08T17:25:25.232Z,123.80
2024-02-08T17:27:57.745Z,126.32
2024-02-08T17:30:48.243Z,124.68
2024-02-08T17:33:24.911Z,130.82
2024-02-08T17:35:54.006Z,119.45
2024-02-08T17:38:30.415Z,124.20
2024-02-08T17:41:05.011Z,138.10
2024-02-08T17:43:40.043Z,131.00
2024-02-08T17:46:08.848Z,128.60
2024-02-08T17:48:40.790Z,137.70
2024-02-08T17:51:12.646Z,121.50
2024-02-08T17:53:46.143Z,132.60
2024-02-08T17:58:47.318Z,131.25
2024-02-08T18:01:18.157Z,135.50
2024-02-08T18:03:48.786Z,132.82
2024-02-08T18:06:18.337Z,129.52
2024-02-08T18:08:48.024Z,134.45
2024-02-08T18:11:17.606Z,141.95
2024-02-08T18:13:45.044Z,135.32
2024-02-08T18:16:12.553Z,137.45
2024-02-08T18:18:41.176Z,137.40
2024-02-08T18:21:14.939Z,134.40
2024-02-08T18:23:49.249Z,130.23
2024-02-08T18:26:28.556Z,133.70
2024-02-08T18:28:57.842Z,125.45
2024-02-08T18:31:25.508Z,135.00
2024-02-08T18:33:58.482Z,140.25
2024-02-08T18:36:26.572Z,138.68
2024-02-08T18:38:54.027Z,141.35
2024-02-08T18:41:24.965Z,136.70
2024-02-08T18:43:53.099Z,132.05
2024-02-08T18:46:25.306Z,143.88
2024-02-08T18:48:57.694Z,143.40
2024-02-08T18:51:26.326Z,137.82
2024-02-08T18:53:53.961Z,138.70
2024-02-08T18:56:28.524Z,143.85
2024-02-08T18:59:03.838Z,142.88
2024-02-08T19:01:35.565Z,144.60
2024-02-08T19:04:17.076Z,142.90
2024-02-08T19:06:57.339Z,144.10
2024-02-08T19:09:32.560Z,147.63
2024-02-08T19:12:04.751Z,147.68
2024-02-08T19:17:17.192Z,139.65
2024-02-08T19:19:53.672Z,139.35
2024-02-08T19:22:27.148Z,146.90
2024-02-08T19:25:04.208Z,142.82
2024-02-08T19:27:49.007Z,144.70
2024-02-08T19:30:36.637Z,138.38
2024-02-08T19:33:20.538Z,137.63
2024-02-08T19:35:59.462Z,139.30
2024-02-08T19:41:19.993Z,151.40
2024-02-08T19:43:57.788Z,132.85
2024-02-08T19:46:29.593Z,139.77
2024-02-08T19:49:09.525Z,152.73
2024-02-08T19:51:42.055Z,124.65
2024-02-08T19:54:18.880Z,144.75
2024-02-08T19:56:59.441Z,139.85
2024-02-08T19:59:30.006Z,130.40
2024-02-08T20:01:57.793Z,138.95
2024-02-08T20:04:29.163Z,160.30
2024-02-08T20:06:56.523Z,146.32
2024-02-08T20:09:23.941Z,141.63
2024-02-08T20:11:55.388Z,143.18
2024-02-08T20:14:23.044Z,138.50
2024-02-08T20:16:51.961Z,130.70
2024-02-08T20:19:22.072Z,140.57
2024-02-08T20:21:56.467Z,137.30
2024-02-08T20:24:24.744Z,148.45
2024-02-08T20:26:54.645Z,138.93
2024-02-08T20:29:24.268Z,147.30
2024-02-08T20:31:52.695Z,141.73
2024-02-08T20:34:20.990Z,141.52
2024-02-08T20:36:51.809Z,145.93
2024-02-08T20:39:19.644Z,135.18
2024-02-08T20:41:49.130Z,150.88
2024-02-08T20:44:16.730Z,130.98
2024-02-08T20:46:50.191Z,142.35
2024-02-08T20:49:18.132Z,145.60
2024-02-08T20:51:48.991Z,141.07
2024-02-08T20:54:16.603Z,141.30
2024-02-08T20:56:44.771Z,140.23
2024-02-08T20:59:12.283Z,134.73
2024-02-08T21:01:39.573Z,137.20
2024-02-08T21:04:07.297Z,141.90
2024-02-08T21:06:35.434Z,137.82
2024-02-08T21:09:11.057Z,141.45
2024-02-08T21:11:38.256Z,134.88
2024-02-08T21:14:05.541Z,145.18
2024-02-08T21:16:33.351Z,137.18
2024-02-08T21:19:02.721Z,134.68
2024-02-08T21:21:30.065Z,141.95
2024-02-08T21:23:57.485Z,149.02
2024-02-08T21:26:25.698Z,131.23
2024-02-08T21:28:53.744Z,137.05
2024-02-08T21:31:21.163Z,137.93
2024-02-08T21:33:51.888Z,135.07
2024-02-08T21:36:22.388Z,134.90
2024-02-08T21:38:52.063Z,140.07
2024-02-08T21:41:19.847Z,142.65
2024-02-08T21:43:51.815Z,146.45
2024-02-08T21:46:22.865Z,140.65
2024-02-08T21:48:50.553Z,139.45
2024-02-08T21:51:20.059Z,146.25
2024-02-08T21:53:49.623Z,147.25
2024-02-08T21:56:20.244Z,141.60
2024-02-08T21:58:48.167Z,150.55
2024-02-08T22:04:01.982Z,152.02
2024-02-08T22:06:34.450Z,140.25
2024-02-08T22:09:10.690Z,149.40
2024-02-08T22:11:45.811Z,134.30
2024-02-08T22:14:14.350Z,134.30
2024-02-08T22:16:44.215Z,127.50
2024-02-08T22:19:23.211Z,129.88
2024-02-08T22:21:54.612Z,138.75
2024-02-08T22:24:22.045Z,131.30
2024-02-08T22:26:52.931Z,143.68
2024-02-08T22:29:21.111Z,144.80
2024-02-08T22:31:50.430Z,129.52
2024-02-08T22:34:21.179Z,132.88
2024-02-08T22:36:48.649Z,142.30
2024-02-08T22:39:16.260Z,138.57
2024-02-08T22:41:46.365Z,120.90
2024-02-08T22:44:13.778Z,122.88
2024-02-08T22:46:44.398Z,137.45
2024-02-08T22:49:13.980Z,126.00
2024-02-08T22:51:43.249Z,125.88
2024-02-08T22:54:12.630Z,130.55
2024-02-08T22:56:42.645Z,134.15
2024-02-08T22:59:12.873Z,133.00
2024-02-08T23:01:44.573Z,134.13
2024-02-08T23:04:15.123Z,123.00
2024-02-08T23:06:44.035Z,133.90
2024-02-08T23:09:17.026Z,125.70
2024-02-08T23:11:45.560Z,133.93
2024-02-08T23:14:19.115Z,127.97
2024-02-08T23:16:46.982Z,127.50
2024-02-08T23:19:14.887Z,129.82
2024-02-08T23:21:42.301Z,139.90
2024-02-08T23:24:11.866Z,134.25
2024-02-08T23:26:39.491Z,132.00
2024-02-08T23:29:08.450Z,123.35
2024-02-08T23:31:37.090Z,116.30
2024-02-08T23:34:04.854Z,115.25
2024-02-08T23:36:34.624Z,117.22
2024-02-08T23:39:05.633Z,113.07
2024-02-08T23:41:33.061Z,108.68
2024-02-08T23:44:00.421Z,106.15
2024-02-08T23:46:27.645Z,123.97
2024-02-08T23:48:58.674Z,108.43
2024-02-08T23:51:26.320Z,113.90
2024-02-08T23:53:57.441Z,109.38
2024-02-08T23:56:25.065Z,120.07
2024-02-08T23:58:53.125Z,106.32
